createdAt,value
2023-04-11T00:00:15.685Z,1.30
2023-04-11T00:02:42.329Z,3.70
2023-04-11T00:05:09.788Z,1.80
2023-04-11T00:07:36.507Z,1.40
2023-04-11T00:10:03.445Z,3.27
2023-04-11T00:12:30.048Z,3.00
2023-04-11T00:14:56.585Z,2.63
2023-04-11T00:17:23.752Z,6.50
2023-04-11T00:19:53.262Z,1.50
2023-04-11T00:22:19.850Z,3.10
2023-04-11T00:24:46.449Z,3.33
2023-04-11T00:27:13.201Z,3.80
2023-04-11T00:29:40.520Z,2.40
2023-04-11T00:32:07.505Z,2.43
2023-04-11T00:34:34.325Z,1.67
2023-04-11T00:37:01.639Z,3.10
2023-04-11T00:39:30.317Z,1.70
2023-04-11T00:42:07.825Z,1.83
2023-04-11T00:44:36.121Z,2.07
2023-04-11T00:47:05.863Z,2.33
2023-04-11T00:49:32.937Z,8.07
2023-04-11T00:52:00.484Z,2.30
2023-04-11T00:54:30.047Z,2.37
2023-04-11T00:57:01.884Z,9.00
2023-04-11T00:59:30.029Z,2.93
2023-04-11T01:01:58.345Z,2.27
2023-04-11T01:04:26.241Z,3.93
2023-04-11T01:06:59.051Z,3.20
2023-04-11T01:09:27.585Z,2.90
2023-04-11T01:11:54.222Z,6.50
2023-04-11T01:14:21.087Z,5.13
2023-04-11T01:16:48.511Z,4.40
2023-04-11T01:19:18.573Z,3.27
2023-04-11T01:21:46.332Z,4.00
2023-04-11T01:24:13.469Z,4.73
2023-04-11T01:26:40.352Z,6.30
2023-04-11T01:29:06.986Z,6.43
2023-04-11T01:31:33.544Z,4.00
2023-04-11T01:34:01.421Z,8.50
2023-04-11T01:36:29.133Z,4.47
2023-04-11T01:38:56.279Z,7.27
2023-04-11T01:41:24.932Z,6.70
2023-04-11T01:43:51.468Z,3.90
2023-04-11T01:46:18.101Z,3.77
2023-04-11T01:48:45.846Z,3.77
2023-04-11T01:51:12.508Z,6.37
2023-04-11T01:53:39.003Z,4.37
2023-04-11T01:56:06.096Z,7.27
2023-04-11T01:58:32.891Z,3.37
2023-04-11T02:00:59.481Z,4.87
2023-04-11T02:03:26.320Z,6.60
2023-04-11T02:05:53.002Z,9.23
2023-04-11T02:08:19.501Z,7.67
2023-04-11T02:10:46.137Z,8.43
2023-04-11T02:13:12.805Z,6.10
2023-04-11T02:15:39.532Z,14.00
2023-04-11T02:18:07.077Z,4.67
2023-04-11T02:20:33.792Z,7.60
2023-04-11T02:23:04.232Z,7.17
2023-04-11T02:25:31.269Z,5.13
2023-04-11T02:27:57.812Z,7.03
2023-04-11T02:30:24.428Z,2.80
2023-04-11T02:32:51.464Z,6.20
2023-04-11T02:35:19.031Z,12.90
2023-04-11T02:37:45.957Z,6.60
2023-04-11T02:40:12.630Z,13.77
2023-04-11T02:42:42.850Z,10.03
2023-04-11T02:45:09.748Z,11.20
2023-04-11T02:47:36.543Z,13.87
2023-04-11T02:50:03.224Z,18.23
2023-04-11T02:52:29.756Z,10.17
2023-04-11T02:54:56.379Z,16.70
2023-04-11T02:57:22.967Z,6.77
2023-04-11T02:59:49.478Z,17.90
2023-04-11T03:02:16.482Z,9.53
2023-04-11T03:04:43.108Z,10.23
2023-04-11T03:07:09.626Z,15.77
2023-04-11T03:09:36.704Z,12.93
2023-04-11T03:12:03.300Z,13.20
2023-04-11T03:14:29.807Z,11.50
2023-04-11T03:16:56.338Z,8.40
2023-04-11T03:19:23.091Z,16.80
2023-04-11T03:21:49.961Z,13.07
2023-04-11T03:24:17.790Z,12.63
2023-04-11T03:26:44.571Z,13.27
2023-04-11T03:29:11.151Z,12.20
2023-04-11T03:31:38.026Z,14.57
2023-04-11T03:34:04.802Z,14.00
2023-04-11T03:36:32.174Z,12.33
2023-04-11T03:38:58.635Z,14.80
2023-04-11T03:41:25.148Z,13.70
2023-04-11T03:43:51.694Z,15.77
2023-04-11T03:46:18.251Z,11.97
2023-04-11T03:48:47.079Z,15.60
2023-04-11T03:51:13.679Z,21.50
2023-04-11T03:53:40.539Z,21.53
2023-04-11T03:56:07.652Z,16.53
2023-04-11T03:58:34.161Z,13.50
2023-04-11T04:01:02.533Z,13.83
2023-04-11T04:03:29.389Z,11.50
2023-04-11T04:05:56.043Z,19.53
2023-04-11T04:08:22.616Z,14.20
2023-04-11T04:10:49.152Z,13.93
2023-04-11T04:13:15.740Z,13.30
2023-04-11T04:15:42.512Z,13.30
2023-04-11T04:18:09.178Z,12.83
2023-04-11T04:20:35.986Z,11.57
2023-04-11T04:23:04.636Z,15.83
2023-04-11T04:25:31.207Z,19.40
2023-04-11T04:27:58.207Z,21.73
2023-04-11T04:30:28.578Z,14.87
2023-04-11T04:32:58.794Z,13.97
2023-04-11T04:35:26.474Z,14.27
2023-04-11T04:37:54.248Z,17.70
2023-04-11T04:40:21.388Z,16.73
2023-04-11T04:42:58.260Z,16.43
2023-04-11T04:45:26.255Z,30.10
2023-04-11T04:47:52.998Z,17.50
2023-04-11T04:50:20.597Z,15.37
2023-04-11T04:52:49.316Z,18.77
2023-04-11T04:55:16.108Z,12.60
2023-04-11T04:57:42.985Z,24.07
2023-04-11T05:00:11.620Z,15.60
2023-04-11T05:02:43.442Z,12.30
2023-04-11T05:05:11.757Z,11.80
2023-04-11T05:07:38.483Z,15.60
2023-04-11T05:10:05.659Z,14.20
2023-04-11T05:12:32.203Z,20.27
2023-04-11T05:14:58.766Z,12.43
2023-04-11T05:17:26.234Z,14.77
2023-04-11T05:19:52.916Z,23.07
2023-04-11T05:22:19.512Z,13.67
2023-04-11T05:24:46.306Z,14.93
2023-04-11T05:27:13.432Z,19.87
2023-04-11T05:29:40.340Z,18.33
2023-04-11T05:32:06.875Z,11.97
2023-04-11T05:34:34.433Z,14.60
2023-04-11T05:37:01.433Z,13.23
2023-04-11T05:39:27.965Z,12.20
2023-04-11T05:41:54.501Z,11.73
2023-04-11T05:44:21.270Z,10.13
2023-04-11T05:46:47.756Z,12.53
2023-04-11T05:49:14.368Z,12.53
2023-04-11T05:51:40.965Z,7.80
2023-04-11T05:54:07.694Z,9.60
2023-04-11T05:56:35.264Z,8.07
2023-04-11T05:59:01.893Z,8.60
